Time;durP1;ratioP1;P1;durP2;ratioP2;P2;SDS_P1;SDS_P2;PMS_P1;PMS_P2;Temp;Humidity;BMP_temperature;BMP_pressure;BME280_temperature;BME280_humidity;BME280_pressure;Samples;Min_cycle;Max_cycle;Signal;HPM_P1;HPM_P2
2019/05/30 00:02:54;;;;;;;1.33;1.23;;;;;;;20.27;49.35;101369.50;;;;-60
2019/05/30 00:05:54;;;;;;;1.59;1.35;;;;;;;20.26;49.38;101370.33;;;;-60
2019/05/30 00:08:53;;;;;;;1.39;1.27;;;;;;;20.26;49.32;101369.44;;;;-59
2019/05/30 00:11:53;;;;;;;1.38;1.19;;;;;;;20.26;49.34;101372.19;;;;-60
2019/05/30 00:14:53;;;;;;;1.38;1.28;;;;;;;20.25;49.33;101374.08;;;;-60
2019/05/30 00:17:54;;;;;;;1.78;1.27;;;;;;;20.25;49.40;101372.30;;;;-59
2019/05/30 00:20:53;;;;;;;1.83;1.30;;;;;;;20.24;49.33;101366.52;;;;-60
2019/05/30 00:23:53;;;;;;;1.32;1.20;;;;;;;20.24;49.31;101366.88;;;;-59
2019/05/30 00:26:53;;;;;;;1.39;1.29;;;;;;;20.23;49.32;101366.92;;;;-60
2019/05/30 00:29:53;;;;;;;1.51;1.20;;;;;;;20.22;49.32;101366.75;;;;-60
2019/05/30 00:32:54;;;;;;;1.38;1.28;;;;;;;20.23;49.36;101367.69;;;;-60
2019/05/30 00:35:53;;;;;;;1.41;1.31;;;;;;;20.22;49.36;101365.29;;;;-60
2019/05/30 00:38:53;;;;;;;1.30;1.20;;;;;;;20.21;49.32;101366.36;;;;-60
2019/05/30 00:41:53;;;;;;;1.30;1.20;;;;;;;20.21;49.33;101367.76;;;;-60
2019/05/30 00:44:53;;;;;;;1.28;1.20;;;;;;;20.21;49.33;101367.76;;;;-60
2019/05/30 00:47:53;;;;;;;1.65;1.20;;;;;;;20.20;49.30;101368.53;;;;-60
2019/05/30 00:50:53;;;;;;;1.41;1.31;;;;;;;20.20;49.30;101368.44;;;;-60
2019/05/30 00:53:53;;;;;;;1.55;1.30;;;;;;;20.20;49.35;101375.74;;;;-60
2019/05/30 00:56:53;;;;;;;1.46;1.36;;;;;;;20.19;49.30;101369.49;;;;-60
2019/05/30 00:59:53;;;;;;;1.45;1.29;;;;;;;20.18;49.31;101368.16;;;;-59
2019/05/30 01:02:53;;;;;;;1.23;1.13;;;;;;;20.18;49.31;101365.74;;;;-60
2019/05/30 01:05:53;;;;;;;1.23;1.20;;;;;;;20.17;49.34;101364.69;;;;-60
2019/05/30 01:08:53;;;;;;;1.40;1.30;;;;;;;20.17;49.25;101362.50;;;;-60
2019/05/30 01:11:53;;;;;;;1.35;1.23;;;;;;;20.17;49.35;101358.98;;;;-60
2019/05/30 01:14:53;;;;;;;2.27;1.33;;;;;;;20.16;49.28;101354.34;;;;-60
2019/05/30 01:17:53;;;;;;;1.29;1.20;;;;;;;20.16;49.30;101355.13;;;;-60
2019/05/30 01:20:53;;;;;;;2.26;1.24;;;;;;;20.15;49.31;101360.15;;;;-60
2019/05/30 01:23:54;;;;;;;1.40;1.30;;;;;;;20.15;49.33;101356.34;;;;-59
2019/05/30 01:26:53;;;;;;;1.31;1.21;;;;;;;20.14;49.33;101355.56;;;;-60
2019/05/30 01:29:53;;;;;;;1.10;1.10;;;;;;;20.15;49.26;101352.98;;;;-60
2019/05/30 01:32:54;;;;;;;1.39;1.29;;;;;;;20.13;49.32;101356.41;;;;-60
2019/05/30 01:35:53;;;;;;;1.40;1.30;;;;;;;20.13;49.26;101352.04;;;;-59
2019/05/30 01:38:53;;;;;;;1.45;1.31;;;;;;;20.13;49.32;101350.48;;;;-60
2019/05/30 01:41:55;;;;;;;1.38;1.28;;;;;;;20.12;49.26;101346.96;;;;-59
2019/05/30 01:44:53;;;;;;;1.81;1.30;;;;;;;20.13;49.27;101349.86;;;;-59
2019/05/30 01:47:53;;;;;;;1.58;1.27;;;;;;;20.12;49.22;101347.47;;;;-60
2019/05/30 01:50:53;;;;;;;1.38;1.28;;;;;;;20.11;49.25;101346.84;;;;-59
2019/05/30 01:53:53;;;;;;;1.41;1.31;;;;;;;20.11;49.25;101344.55;;;;-60
2019/05/30 01:56:53;;;;;;;1.40;1.30;;;;;;;20.11;49.28;101343.14;;;;-59
2019/05/30 01:59:54;;;;;;;1.31;1.21;;;;;;;20.11;49.29;101345.05;;;;-60
2019/05/30 02:02:55;;;;;;;1.41;1.28;;;;;;;20.10;49.27;101344.16;;;;-60
2019/05/30 02:05:53;;;;;;;1.42;1.29;;;;;;;20.11;49.26;101346.05;;;;-60
2019/05/30 02:08:53;;;;;;;1.28;1.20;;;;;;;20.09;49.26;101341.20;;;;-59
2019/05/30 02:11:53;;;;;;;1.40;1.30;;;;;;;20.09;49.28;101344.45;;;;-59
2019/05/30 02:14:53;;;;;;;1.11;1.11;;;;;;;20.09;49.23;101349.73;;;;-60
2019/05/30 02:17:53;;;;;;;1.22;1.21;;;;;;;20.09;49.28;101350.30;;;;-60
2019/05/30 02:20:53;;;;;;;1.36;1.27;;;;;;;20.08;49.24;101354.95;;;;-60
2019/05/30 02:23:54;;;;;;;1.19;1.19;;;;;;;20.08;49.28;101356.45;;;;-60
2019/05/30 02:26:53;;;;;;;1.31;1.21;;;;;;;20.08;49.27;101358.23;;;;-60
2019/05/30 02:29:53;;;;;;;1.30;1.20;;;;;;;20.07;49.23;101353.83;;;;-60
2019/05/30 02:32:53;;;;;;;1.40;1.30;;;;;;;20.07;49.28;101357.51;;;;-60
2019/05/30 02:35:53;;;;;;;1.28;1.20;;;;;;;20.07;49.22;101362.20;;;;-60
2019/05/30 02:38:53;;;;;;;1.40;1.30;;;;;;;20.05;49.23;101356.66;;;;-60
2019/05/30 02:41:53;;;;;;;1.35;1.25;;;;;;;20.05;49.24;101356.57;;;;-60
2019/05/30 02:44:53;;;;;;;1.28;1.20;;;;;;;20.05;49.25;101358.17;;;;-60
2019/05/30 02:47:53;;;;;;;1.30;1.20;;;;;;;20.05;49.21;101356.45;;;;-59
2019/05/30 02:50:53;;;;;;;1.33;1.23;;;;;;;20.04;49.28;101355.34;;;;-60
2019/05/30 02:53:53;;;;;;;1.40;1.30;;;;;;;20.04;49.24;101357.02;;;;-60
2019/05/30 02:56:53;;;;;;;1.40;1.30;;;;;;;20.04;49.24;101358.01;;;;-60
2019/05/30 02:59:53;;;;;;;1.52;1.35;;;;;;;20.04;49.23;101357.51;;;;-60
2019/05/30 03:02:53;;;;;;;1.37;1.27;;;;;;;20.03;49.24;101359.73;;;;-59
2019/05/30 03:05:53;;;;;;;1.49;1.39;;;;;;;20.02;49.30;101360.59;;;;-59
2019/05/30 03:08:53;;;;;;;1.23;1.21;;;;;;;20.02;49.20;101364.78;;;;-60
2019/05/30 03:11:53;;;;;;;1.53;1.40;;;;;;;20.02;49.23;101361.08;;;;-60
2019/05/30 03:14:54;;;;;;;1.31;1.22;;;;;;;20.01;49.23;101361.76;;;;-60
2019/05/30 03:17:53;;;;;;;1.35;1.25;;;;;;;20.02;49.24;101368.52;;;;-59
2019/05/30 03:20:53;;;;;;;1.52;1.42;;;;;;;20.01;49.21;101374.78;;;;-60
2019/05/30 03:23:53;;;;;;;1.40;1.30;;;;;;;20.01;49.23;101374.55;;;;-59
2019/05/30 03:26:54;;;;;;;1.47;1.37;;;;;;;20.01;49.20;101379.53;;;;-59
2019/05/30 03:29:54;;;;;;;1.40;1.30;;;;;;;20.00;49.23;101375.91;;;;-60
2019/05/30 03:32:54;;;;;;;1.41;1.31;;;;;;;20.01;49.21;101383.66;;;;-59
2019/05/30 03:35:53;;;;;;;1.65;1.35;;;;;;;20.00;49.24;101389.75;;;;-60
2019/05/30 03:38:53;;;;;;;1.40;1.30;;;;;;;19.99;49.23;101391.70;;;;-60
2019/05/30 03:41:54;;;;;;;1.40;1.30;;;;;;;19.99;49.27;101395.80;;;;-60
2019/05/30 03:44:53;;;;;;;1.44;1.34;;;;;;;19.99;49.24;101397.41;;;;-60
2019/05/30 03:47:54;;;;;;;1.38;1.28;;;;;;;19.99;49.22;101397.48;;;;-60
2019/05/30 03:50:53;;;;;;;1.38;1.28;;;;;;;19.98;49.25;101400.14;;;;-60
2019/05/30 03:53:53;;;;;;;1.13;1.13;;;;;;;19.98;49.25;101402.05;;;;-59
2019/05/30 03:56:53;;;;;;;1.50;1.40;;;;;;;19.98;49.24;101399.89;;;;-60
2019/05/30 03:59:54;;;;;;;1.40;1.30;;;;;;;19.97;49.22;101404.57;;;;-59
2019/05/30 04:02:53;;;;;;;1.49;1.39;;;;;;;19.98;49.22;101410.87;;;;-59
2019/05/30 04:05:53;;;;;;;1.37;1.27;;;;;;;19.97;49.21;101407.05;;;;-59
2019/05/30 04:08:53;;;;;;;1.41;1.31;;;;;;;19.97;49.22;101409.16;;;;-59
2019/05/30 04:11:53;;;;;;;1.40;1.30;;;;;;;19.97;49.22;101412.78;;;;-59
2019/05/30 04:14:53;;;;;;;1.40;1.30;;;;;;;19.97;49.22;101407.10;;;;-59
2019/05/30 04:17:53;;;;;;;1.37;1.29;;;;;;;19.97;49.25;101414.31;;;;-59
2019/05/30 04:20:53;;;;;;;1.31;1.23;;;;;;;19.97;49.22;101418.95;;;;-59
2019/05/30 04:23:54;;;;;;;1.40;1.30;;;;;;;19.96;49.17;101416.44;;;;-59
2019/05/30 04:26:54;;;;;;;1.40;1.30;;;;;;;19.95;49.21;101420.89;;;;-59
2019/05/30 04:29:53;;;;;;;1.40;1.30;;;;;;;19.96;49.25;101430.69;;;;-60
2019/05/30 04:32:54;;;;;;;1.40;1.30;;;;;;;19.95;49.21;101425.54;;;;-59
2019/05/30 04:35:53;;;;;;;1.50;1.40;;;;;;;19.95;49.21;101432.91;;;;-59
2019/05/30 04:38:53;;;;;;;1.41;1.27;;;;;;;19.95;49.21;101433.08;;;;-60
2019/05/30 04:41:53;;;;;;;1.47;1.37;;;;;;;19.95;49.27;101432.24;;;;-59
2019/05/30 04:44:53;;;;;;;1.43;1.32;;;;;;;19.94;49.18;101436.15;;;;-60
2019/05/30 04:47:53;;;;;;;1.40;1.30;;;;;;;19.94;49.20;101437.05;;;;-60
2019/05/30 04:50:53;;;;;;;1.50;1.40;;;;;;;19.94;49.18;101438.05;;;;-59
2019/05/30 04:53:54;;;;;;;1.39;1.29;;;;;;;19.94;49.24;101442.14;;;;-59
2019/05/30 04:56:54;;;;;;;1.43;1.33;;;;;;;19.94;49.22;101442.63;;;;-60
2019/05/30 04:59:54;;;;;;;1.38;1.28;;;;;;;19.93;49.17;101442.06;;;;-60
2019/05/30 05:02:53;;;;;;;1.50;1.40;;;;;;;19.94;49.21;101443.59;;;;-59
2019/05/30 05:05:53;;;;;;;1.48;1.38;;;;;;;19.93;49.22;101439.89;;;;-59
2019/05/30 05:08:53;;;;;;;1.39;1.29;;;;;;;19.93;49.21;101442.12;;;;-59
2019/05/30 05:11:53;;;;;;;1.40;1.30;;;;;;;19.93;49.24;101447.44;;;;-54
2019/05/30 05:14:53;;;;;;;1.40;1.30;;;;;;;19.95;49.25;101446.83;;;;-53
2019/05/30 05:17:55;;;;;;;1.28;1.21;;;;;;;19.95;49.21;101452.75;;;;-53
2019/05/30 05:20:53;;;;;;;1.40;1.30;;;;;;;19.95;49.20;101450.13;;;;-52
2019/05/30 05:23:53;;;;;;;1.41;1.31;;;;;;;19.96;49.18;101455.99;;;;-52
2019/05/30 05:26:53;;;;;;;1.40;1.30;;;;;;;19.98;49.22;101456.12;;;;-59
2019/05/30 05:29:53;;;;;;;1.48;1.38;;;;;;;19.98;49.18;101459.05;;;;-52
2019/05/30 05:32:53;;;;;;;1.36;1.26;;;;;;;19.99;49.16;101465.44;;;;-52
2019/05/30 05:35:53;;;;;;;1.50;1.40;;;;;;;19.99;49.10;101463.87;;;;-60
2019/05/30 05:38:53;;;;;;;1.63;1.28;;;;;;;20.00;49.12;101464.59;;;;-59
2019/05/30 05:41:53;;;;;;;1.54;1.44;;;;;;;20.01;49.13;101469.86;;;;-59
2019/05/30 05:44:53;;;;;;;1.39;1.29;;;;;;;20.02;49.12;101470.58;;;;-60
2019/05/30 05:47:53;;;;;;;1.31;1.26;;;;;;;20.03;49.07;101475.23;;;;-59
2019/05/30 05:50:53;;;;;;;1.27;1.20;;;;;;;20.03;49.18;101478.52;;;;-59
2019/05/30 05:53:53;;;;;;;3.39;3.09;;;;;;;19.96;48.74;101481.48;;;;-59
2019/05/30 05:56:53;;;;;;;5.57;3.64;;;;;;;19.91;48.58;101479.62;;;;-51
2019/05/30 05:59:53;;;;;;;3.98;3.62;;;;;;;19.94;48.55;101486.45;;;;-54
2019/05/30 06:02:53;;;;;;;3.65;3.35;;;;;;;19.97;48.49;101488.64;;;;-54
2019/05/30 06:05:53;;;;;;;3.69;2.81;;;;;;;20.00;48.58;101486.62;;;;-56
2019/05/30 06:08:53;;;;;;;4.38;2.79;;;;;;;20.01;48.61;101484.62;;;;-57
2019/05/30 06:11:54;;;;;;;3.32;2.65;;;;;;;20.03;48.55;101486.34;;;;-61
2019/05/30 06:14:54;;;;;;;2.63;2.43;;;;;;;20.04;48.57;101490.66;;;;-57
2019/05/30 06:17:53;;;;;;;2.91;2.21;;;;;;;20.06;48.58;101489.59;;;;-56
2019/05/30 06:20:53;;;;;;;3.19;2.10;;;;;;;20.06;48.65;101491.45;;;;-57
2019/05/30 06:23:53;;;;;;;2.11;1.90;;;;;;;20.07;48.70;101492.34;;;;-56
2019/05/30 06:26:54;;;;;;;1.97;1.71;;;;;;;20.07;48.69;101496.09;;;;-56
2019/05/30 06:29:53;;;;;;;1.94;1.83;;;;;;;20.08;48.73;101496.59;;;;-57
2019/05/30 06:32:53;;;;;;;2.77;1.88;;;;;;;20.08;48.74;101498.11;;;;-56
2019/05/30 06:35:53;;;;;;;1.96;1.80;;;;;;;20.09;48.73;101500.50;;;;-57
2019/05/30 06:38:53;;;;;;;3.29;1.80;;;;;;;20.09;48.74;101497.89;;;;-56
2019/05/30 06:41:53;;;;;;;2.31;1.83;;;;;;;20.09;48.75;101502.34;;;;-57
2019/05/30 06:44:53;;;;;;;2.35;1.79;;;;;;;20.09;48.75;101503.94;;;;-56
2019/05/30 06:47:53;;;;;;;5.51;2.09;;;;;;;20.10;49.06;101503.93;;;;-52
2019/05/30 06:50:54;;;;;;;7.94;1.91;;;;;;;20.13;49.32;101513.31;;;;-54
2019/05/30 06:53:53;;;;;;;5.89;1.81;;;;;;;20.14;49.24;101515.05;;;;-52
2019/05/30 06:56:53;;;;;;;2.83;1.61;;;;;;;20.14;49.35;101511.55;;;;-53
2019/05/30 06:59:53;;;;;;;2.97;1.75;;;;;;;20.16;49.34;101516.86;;;;-52
2019/05/30 07:02:53;;;;;;;2.18;1.68;;;;;;;20.17;49.35;101513.69;;;;-52
2019/05/30 07:05:53;;;;;;;2.03;1.70;;;;;;;20.19;49.39;101514.47;;;;-56
2019/05/30 07:08:53;;;;;;;2.74;1.69;;;;;;;20.20;49.45;101508.94;;;;-55
2019/05/30 07:11:53;;;;;;;2.31;1.70;;;;;;;20.22;49.47;101512.58;;;;-55
2019/05/30 07:14:54;;;;;;;3.64;1.78;;;;;;;20.23;49.52;101514.03;;;;-47
2019/05/30 07:17:53;;;;;;;3.04;1.76;;;;;;;20.25;49.51;101516.00;;;;-50
2019/05/30 07:20:53;;;;;;;2.77;1.73;;;;;;;20.27;49.57;101520.03;;;;-50
2019/05/30 07:23:53;;;;;;;2.39;1.77;;;;;;;20.27;49.54;101521.19;;;;-50
2019/05/30 07:26:54;;;;;;;6.15;1.66;;;;;;;20.30;49.68;101516.69;;;;-52
2019/05/30 07:29:53;;;;;;;6.28;1.84;;;;;;;20.31;49.61;101519.64;;;;-51
2019/05/30 07:32:53;;;;;;;6.41;1.93;;;;;;;20.32;49.64;101519.09;;;;-53
2019/05/30 07:35:53;;;;;;;4.58;1.78;;;;;;;20.33;49.80;101524.12;;;;-48
2019/05/30 07:38:53;;;;;;;4.87;1.83;;;;;;;20.34;49.80;101522.23;;;;-52
2019/05/30 07:41:53;;;;;;;2.91;1.87;;;;;;;20.37;49.75;101521.39;;;;-51
2019/05/30 07:44:53;;;;;;;7.76;1.88;;;;;;;20.37;49.96;101523.52;;;;-53
2019/05/30 07:47:53;;;;;;;6.04;1.90;;;;;;;20.40;49.81;101527.94;;;;-52
2019/05/30 07:50:53;;;;;;;5.48;2.02;;;;;;;20.41;49.99;101523.31;;;;-51
2019/05/30 07:53:53;;;;;;;4.88;1.76;;;;;;;20.42;49.96;101525.88;;;;-52
2019/05/30 07:56:53;;;;;;;5.51;2.08;;;;;;;20.44;49.79;101523.47;;;;-53
2019/05/30 07:59:53;;;;;;;3.71;1.90;;;;;;;20.45;49.78;101526.45;;;;-53
2019/05/30 08:02:53;;;;;;;3.41;1.70;;;;;;;20.44;49.79;101524.43;;;;-52
2019/05/30 08:05:53;;;;;;;2.86;1.72;;;;;;;20.46;49.83;101527.11;;;;-53
2019/05/30 08:08:53;;;;;;;6.51;1.91;;;;;;;20.47;49.81;101521.97;;;;-52
2019/05/30 08:11:53;;;;;;;3.07;1.63;;;;;;;20.47;49.76;101515.20;;;;-52
2019/05/30 08:14:53;;;;;;;6.10;1.87;;;;;;;20.47;49.72;101516.88;;;;-53
2019/05/30 08:17:53;;;;;;;4.26;1.91;;;;;;;20.48;49.77;101514.09;;;;-53
2019/05/30 08:20:53;;;;;;;5.59;1.86;;;;;;;20.50;49.81;101509.52;;;;-53
2019/05/30 08:23:53;;;;;;;3.99;1.87;;;;;;;20.49;49.67;101510.28;;;;-54
2019/05/30 08:26:53;;;;;;;4.77;1.89;;;;;;;20.49;49.71;101507.94;;;;-53
2019/05/30 08:29:53;;;;;;;2.71;1.65;;;;;;;20.50;49.65;101507.61;;;;-52
2019/05/30 08:32:54;;;;;;;1.99;1.60;;;;;;;20.50;49.62;101507.32;;;;-53
2019/05/30 08:35:53;;;;;;;5.55;1.83;;;;;;;20.50;49.79;101496.41;;;;-53
2019/05/30 08:38:53;;;;;;;10.37;2.26;;;;;;;20.51;49.63;101499.45;;;;-53
2019/05/30 08:41:53;;;;;;;4.71;1.90;;;;;;;20.51;49.80;101503.30;;;;-55
2019/05/30 08:44:53;;;;;;;5.14;1.93;;;;;;;20.52;49.82;101502.30;;;;-52
2019/05/30 08:47:53;;;;;;;4.57;1.90;;;;;;;20.53;49.73;101506.77;;;;-52
2019/05/30 08:50:53;;;;;;;5.89;1.86;;;;;;;20.53;49.70;101498.83;;;;-55
2019/05/30 08:53:53;;;;;;;6.81;2.07;;;;;;;20.53;49.67;101497.59;;;;-58
2019/05/30 08:56:54;;;;;;;8.61;1.99;;;;;;;20.54;49.68;101493.30;;;;-54
2019/05/30 08:59:53;;;;;;;4.73;2.08;;;;;;;20.54;49.70;101493.47;;;;-57
2019/05/30 09:02:53;;;;;;;3.75;1.65;;;;;;;20.53;49.67;101487.08;;;;-54
2019/05/30 09:05:53;;;;;;;3.35;1.95;;;;;;;20.54;49.75;101488.53;;;;-59
2019/05/30 09:08:53;;;;;;;4.04;1.69;;;;;;;20.54;49.71;101482.16;;;;-54
2019/05/30 09:11:54;;;;;;;3.95;1.80;;;;;;;20.54;49.64;101478.30;;;;-52
2019/05/30 09:14:53;;;;;;;5.35;1.91;;;;;;;20.54;49.66;101478.23;;;;-53
2019/05/30 09:17:53;;;;;;;3.93;1.80;;;;;;;20.54;49.64;101473.48;;;;-53
2019/05/30 09:20:54;;;;;;;2.17;1.60;;;;;;;20.55;49.65;101474.27;;;;-54
2019/05/30 09:23:53;;;;;;;3.56;1.77;;;;;;;20.55;49.63;101477.02;;;;-54
2019/05/30 09:26:53;;;;;;;3.87;1.71;;;;;;;20.56;49.63;101470.92;;;;-54
2019/05/30 09:29:53;;;;;;;3.49;1.73;;;;;;;20.55;49.59;101467.39;;;;-54
2019/05/30 09:32:53;;;;;;;3.77;1.70;;;;;;;20.56;49.62;101466.50;;;;-54
2019/05/30 09:35:53;;;;;;;2.45;1.82;;;;;;;20.56;49.57;101463.58;;;;-55
2019/05/30 09:38:53;;;;;;;3.33;1.89;;;;;;;20.56;49.56;101462.65;;;;-53
2019/05/30 09:41:53;;;;;;;2.56;1.81;;;;;;;20.57;49.61;101463.04;;;;-59
2019/05/30 09:44:53;;;;;;;3.51;1.73;;;;;;;20.57;49.56;101461.80;;;;-60
2019/05/30 09:47:53;;;;;;;3.29;1.70;;;;;;;20.56;49.66;101459.55;;;;-59
2019/05/30 09:50:53;;;;;;;4.83;1.68;;;;;;;20.57;49.54;101459.91;;;;-59
2019/05/30 09:53:53;;;;;;;2.53;1.61;;;;;;;20.57;49.61;101456.92;;;;-60
2019/05/30 09:56:54;;;;;;;2.43;1.67;;;;;;;20.58;49.56;101458.39;;;;-59
2019/05/30 09:59:53;;;;;;;2.93;1.70;;;;;;;20.58;49.60;101458.11;;;;-62
2019/05/30 10:02:53;;;;;;;3.35;1.71;;;;;;;20.59;49.63;101456.77;;;;-60
2019/05/30 10:05:53;;;;;;;3.93;1.65;;;;;;;20.59;49.65;101453.34;;;;-60
2019/05/30 10:08:54;;;;;;;3.49;1.67;;;;;;;20.59;49.60;101453.25;;;;-61
2019/05/30 10:11:53;;;;;;;3.47;1.74;;;;;;;20.60;49.54;101446.52;;;;-55
2019/05/30 10:14:53;;;;;;;2.73;1.69;;;;;;;20.60;49.45;101446.14;;;;-61
2019/05/30 10:17:53;;;;;;;3.17;1.60;;;;;;;20.58;49.46;101451.06;;;;-61
2019/05/30 10:20:53;;;;;;;3.05;1.69;;;;;;;20.55;49.53;101449.26;;;;-61
2019/05/30 10:23:53;;;;;;;2.43;1.70;;;;;;;20.54;49.49;101441.82;;;;-61
2019/05/30 10:26:53;;;;;;;1.95;1.70;;;;;;;20.53;49.47;101437.80;;;;-62
2019/05/30 10:29:53;;;;;;;2.71;1.66;;;;;;;20.52;49.48;101444.90;;;;-62
2019/05/30 10:32:53;;;;;;;2.85;1.65;;;;;;;20.51;49.46;101439.26;;;;-61
2019/05/30 10:35:53;;;;;;;4.23;1.82;;;;;;;20.50;49.43;101438.34;;;;-61
2019/05/30 10:38:53;;;;;;;1.89;1.60;;;;;;;20.49;49.42;101439.36;;;;-60
2019/05/30 10:41:53;;;;;;;2.42;1.76;;;;;;;20.49;49.40;101440.32;;;;-61
2019/05/30 10:44:53;;;;;;;4.12;1.76;;;;;;;20.47;49.35;101438.47;;;;-62
2019/05/30 10:47:53;;;;;;;6.96;1.80;;;;;;;20.50;49.34;101446.30;;;;-53
2019/05/30 10:50:53;;;;;;;2.84;1.69;;;;;;;20.51;49.36;101441.38;;;;-53
2019/05/30 10:53:53;;;;;;;4.37;1.85;;;;;;;20.51;49.36;101439.08;;;;-51
2019/05/30 10:56:53;;;;;;;3.79;1.75;;;;;;;20.52;49.36;101437.07;;;;-52
2019/05/30 10:59:53;;;;;;;3.45;1.68;;;;;;;20.52;49.38;101430.19;;;;-63
2019/05/30 11:02:53;;;;;;;3.75;1.68;;;;;;;20.52;49.38;101433.77;;;;-63
2019/05/30 11:05:53;;;;;;;3.29;1.55;;;;;;;20.53;49.46;101428.73;;;;-63
2019/05/30 11:10:54;;;;;;;3.37;1.81;;;;;;;20.50;49.42;101420.39;;;;-63
2019/05/30 11:13:53;;;;;;;3.27;1.69;;;;;;;20.49;49.42;101417.94;;;;-62
2019/05/30 11:16:53;;;;;;;2.60;1.69;;;;;;;20.48;49.39;101416.81;;;;-62
2019/05/30 11:19:53;;;;;;;1.79;1.63;;;;;;;20.48;49.37;101415.43;;;;-55
2019/05/30 11:22:54;;;;;;;2.96;1.70;;;;;;;20.47;49.36;101408.20;;;;-54
2019/05/30 11:25:53;;;;;;;3.24;1.73;;;;;;;20.46;49.36;101404.90;;;;-55
2019/05/30 11:28:53;;;;;;;2.75;1.61;;;;;;;20.46;49.39;101403.77;;;;-54
2019/05/30 11:31:53;;;;;;;2.07;1.67;;;;;;;20.46;49.34;101400.16;;;;-53
2019/05/30 11:34:53;;;;;;;3.68;1.61;;;;;;;20.45;49.28;101397.97;;;;-54
2019/05/30 11:37:53;;;;;;;3.50;1.63;;;;;;;20.46;49.29;101395.38;;;;-54
2019/05/30 11:40:53;;;;;;;1.98;1.63;;;;;;;20.45;49.28;101395.83;;;;-55
2019/05/30 11:43:53;;;;;;;4.41;1.61;;;;;;;20.45;49.39;101394.56;;;;-54
2019/05/30 11:46:53;;;;;;;3.44;1.72;;;;;;;20.46;49.26;101393.45;;;;-55
2019/05/30 11:49:53;;;;;;;3.43;1.68;;;;;;;20.47;49.23;101387.50;;;;-55
2019/05/30 11:52:53;;;;;;;5.40;1.79;;;;;;;20.46;49.33;101385.82;;;;-59
2019/05/30 11:55:53;;;;;;;2.36;1.68;;;;;;;20.46;49.26;101385.59;;;;-59
2019/05/30 11:58:53;;;;;;;3.13;1.71;;;;;;;20.48;49.26;101390.08;;;;-54
2019/05/30 12:01:53;;;;;;;3.41;1.57;;;;;;;20.50;49.27;101389.70;;;;-54
2019/05/30 12:04:53;;;;;;;3.13;1.80;;;;;;;20.50;49.31;101390.98;;;;-55
2019/05/30 12:07:53;;;;;;;3.96;1.87;;;;;;;20.50;49.27;101388.30;;;;-53
2019/05/30 12:10:53;;;;;;;7.61;1.87;;;;;;;20.51;49.31;101388.95;;;;-57
2019/05/30 12:13:53;;;;;;;10.99;2.19;;;;;;;20.51;49.50;101390.87;;;;-54
2019/05/30 12:16:53;;;;;;;9.17;1.99;;;;;;;20.51;49.35;101387.61;;;;-54
2019/05/30 12:19:53;;;;;;;6.81;2.03;;;;;;;20.50;49.31;101394.56;;;;-54
2019/05/30 12:22:53;;;;;;;10.39;2.08;;;;;;;20.50;49.37;101387.33;;;;-54
2019/05/30 12:25:53;;;;;;;5.43;1.90;;;;;;;20.54;49.27;101390.36;;;;-54
2019/05/30 12:28:53;;;;;;;5.66;1.89;;;;;;;20.57;49.34;101387.27;;;;-62
2019/05/30 12:31:53;;;;;;;6.65;1.95;;;;;;;20.54;49.34;101389.69;;;;-57
2019/05/30 12:34:54;;;;;;;12.07;2.10;;;;;;;20.55;49.32;101385.61;;;;-62
2019/05/30 12:37:54;;;;;;;8.45;1.87;;;;;;;20.55;49.32;101391.27;;;;-63
2019/05/30 12:40:53;;;;;;;7.68;1.90;;;;;;;20.56;49.40;101389.14;;;;-57
2019/05/30 12:43:53;;;;;;;6.95;2.00;;;;;;;20.57;49.41;101386.50;;;;-62
2019/05/30 12:46:53;;;;;;;4.00;1.80;;;;;;;20.58;49.46;101389.97;;;;-59
2019/05/30 12:49:54;;;;;;;6.27;1.90;;;;;;;20.57;49.46;101386.00;;;;-60
2019/05/30 12:52:53;;;;;;;5.07;1.83;;;;;;;20.58;49.42;101385.05;;;;-60
2019/05/30 12:55:53;;;;;;;3.74;1.78;;;;;;;20.56;49.43;101384.53;;;;-61
2019/05/30 12:58:53;;;;;;;4.73;1.81;;;;;;;20.57;49.55;101379.55;;;;-62
2019/05/30 13:01:53;;;;;;;5.19;1.84;;;;;;;20.58;49.46;101384.81;;;;-61
2019/05/30 13:04:53;;;;;;;5.89;1.98;;;;;;;20.59;49.54;101387.11;;;;-62
2019/05/30 13:07:53;;;;;;;6.71;1.90;;;;;;;20.60;49.58;101393.48;;;;-61
2019/05/30 13:10:53;;;;;;;4.86;1.95;;;;;;;20.59;49.41;101389.06;;;;-58
2019/05/30 13:13:53;;;;;;;4.54;1.77;;;;;;;20.58;49.49;101387.83;;;;-58
2019/05/30 13:16:53;;;;;;;5.43;1.84;;;;;;;20.57;49.57;101390.46;;;;-55
2019/05/30 13:19:53;;;;;;;3.09;1.79;;;;;;;20.58;49.53;101398.97;;;;-57
2019/05/30 13:22:53;;;;;;;2.61;1.70;;;;;;;20.60;49.50;101396.96;;;;-57
2019/05/30 13:25:53;;;;;;;7.05;1.76;;;;;;;20.58;49.43;101399.91;;;;-58
2019/05/30 13:28:53;;;;;;;3.93;1.80;;;;;;;20.56;49.47;101400.54;;;;-57
2019/05/30 13:31:53;;;;;;;3.81;1.79;;;;;;;20.55;49.45;101390.59;;;;-58
2019/05/30 13:34:53;;;;;;;4.45;1.77;;;;;;;20.55;49.45;101405.69;;;;-58
2019/05/30 13:37:53;;;;;;;3.52;1.71;;;;;;;20.53;49.41;101395.45;;;;-57
2019/05/30 13:40:53;;;;;;;2.47;1.73;;;;;;;20.53;49.38;101398.92;;;;-57
2019/05/30 13:43:53;;;;;;;2.24;1.65;;;;;;;20.52;49.37;101399.02;;;;-58
2019/05/30 13:46:54;;;;;;;5.56;1.87;;;;;;;20.51;49.37;101392.25;;;;-58
2019/05/30 13:49:53;;;;;;;3.79;1.65;;;;;;;20.50;49.35;101395.95;;;;-57
2019/05/30 13:52:53;;;;;;;2.15;1.67;;;;;;;20.49;49.35;101395.16;;;;-58
2019/05/30 13:55:53;;;;;;;4.51;1.91;;;;;;;20.49;49.23;101393.00;;;;-58
2019/05/30 13:58:53;;;;;;;3.93;1.70;;;;;;;20.49;49.27;101392.64;;;;-58
2019/05/30 14:01:53;;;;;;;2.77;1.61;;;;;;;20.49;49.28;101389.92;;;;-58
2019/05/30 14:04:53;;;;;;;2.67;1.81;;;;;;;20.48;49.26;101393.55;;;;-58
2019/05/30 14:07:53;;;;;;;4.79;1.75;;;;;;;20.48;49.27;101392.72;;;;-58
2019/05/30 14:10:53;;;;;;;3.43;1.70;;;;;;;20.48;49.23;101394.84;;;;-58
2019/05/30 14:13:53;;;;;;;3.88;1.58;;;;;;;20.46;49.25;101389.80;;;;-57
2019/05/30 14:16:53;;;;;;;2.33;1.57;;;;;;;20.47;49.24;101393.42;;;;-57
2019/05/30 14:19:53;;;;;;;9.50;1.86;;;;;;;20.48;49.21;101394.73;;;;-58
2019/05/30 14:22:53;;;;;;;7.16;2.00;;;;;;;20.48;49.26;101400.27;;;;-58
2019/05/30 14:25:53;;;;;;;4.09;1.70;;;;;;;20.46;49.28;101396.73;;;;-58
2019/05/30 14:28:54;;;;;;;7.55;1.83;;;;;;;20.45;49.26;101396.45;;;;-58
2019/05/30 14:31:53;;;;;;;3.81;1.71;;;;;;;20.46;49.26;101387.16;;;;-58
2019/05/30 14:34:53;;;;;;;2.97;1.61;;;;;;;20.45;49.20;101394.73;;;;-58
2019/05/30 14:37:53;;;;;;;3.55;1.80;;;;;;;20.45;49.20;101396.17;;;;-58
2019/05/30 14:40:53;;;;;;;2.47;1.70;;;;;;;20.44;49.27;101398.80;;;;-58
2019/05/30 14:43:53;;;;;;;4.08;1.74;;;;;;;20.43;49.22;101395.34;;;;-58
2019/05/30 14:46:53;;;;;;;5.23;1.74;;;;;;;20.43;49.22;101390.76;;;;-59
2019/05/30 14:49:53;;;;;;;3.11;1.55;;;;;;;20.43;49.18;101393.03;;;;-58
2019/05/30 14:52:53;;;;;;;4.35;1.74;;;;;;;20.42;49.17;101393.39;;;;-58
2019/05/30 14:55:53;;;;;;;5.07;1.75;;;;;;;20.42;49.21;101397.02;;;;-54
2019/05/30 14:58:53;;;;;;;2.67;1.63;;;;;;;20.44;49.25;101399.25;;;;-57
2019/05/30 15:01:53;;;;;;;4.66;1.75;;;;;;;20.46;49.23;101396.67;;;;-55
2019/05/30 15:04:53;;;;;;;9.43;1.81;;;;;;;20.47;49.36;101399.14;;;;-52
2019/05/30 15:07:53;;;;;;;6.26;1.69;;;;;;;20.48;49.42;101397.69;;;;-55
2019/05/30 15:10:53;;;;;;;3.43;1.61;;;;;;;20.49;49.41;101389.35;;;;-53
2019/05/30 15:13:53;;;;;;;5.25;1.58;;;;;;;20.51;49.43;101387.68;;;;-52
2019/05/30 15:16:53;;;;;;;4.81;1.71;;;;;;;20.52;49.38;101392.44;;;;-52
2019/05/30 15:19:53;;;;;;;3.25;1.59;;;;;;;20.53;49.36;101399.75;;;;-52
2019/05/30 15:22:53;;;;;;;4.08;1.70;;;;;;;20.54;49.31;101395.39;;;;-50
2019/05/30 15:25:53;;;;;;;7.12;1.73;;;;;;;20.55;49.27;101395.72;;;;-59
2019/05/30 15:28:53;;;;;;;3.05;1.67;;;;;;;20.56;49.33;101396.06;;;;-59
2019/05/30 15:31:53;;;;;;;4.71;1.61;;;;;;;20.56;49.34;101399.70;;;;-59
2019/05/30 15:34:53;;;;;;;3.93;1.71;;;;;;;20.57;49.60;101393.31;;;;-59
2019/05/30 15:37:53;;;;;;;6.31;1.91;;;;;;;20.57;49.58;101388.91;;;;-58
2019/05/30 15:40:53;;;;;;;9.00;1.95;;;;;;;20.58;49.66;101394.77;;;;-62
2019/05/30 15:43:53;;;;;;;3.18;1.61;;;;;;;20.59;49.63;101394.05;;;;-61
2019/05/30 15:46:53;;;;;;;3.41;1.70;;;;;;;20.58;49.65;101392.10;;;;-62
2019/05/30 15:49:53;;;;;;;5.05;1.60;;;;;;;20.60;49.62;101388.78;;;;-63
2019/05/30 15:52:53;;;;;;;2.69;1.57;;;;;;;20.60;49.65;101391.19;;;;-61
2019/05/30 15:55:53;;;;;;;3.91;1.71;;;;;;;20.60;49.68;101389.01;;;;-61
2019/05/30 15:58:53;;;;;;;3.61;1.69;;;;;;;20.62;49.71;101390.69;;;;-58
2019/05/30 16:01:53;;;;;;;4.71;1.70;;;;;;;20.61;49.60;101390.92;;;;-58
2019/05/30 16:04:53;;;;;;;2.34;1.63;;;;;;;20.60;49.69;101389.41;;;;-59
2019/05/30 16:07:53;;;;;;;2.78;1.65;;;;;;;20.59;49.62;101390.41;;;;-58
2019/05/30 16:10:53;;;;;;;3.72;1.60;;;;;;;20.58;49.58;101391.75;;;;-58
2019/05/30 16:13:53;;;;;;;3.33;1.71;;;;;;;20.57;49.59;101389.36;;;;-58
2019/05/30 16:16:53;;;;;;;3.13;1.63;;;;;;;20.57;49.56;101386.16;;;;-58
2019/05/30 16:19:53;;;;;;;3.36;1.78;;;;;;;20.56;49.58;101393.38;;;;-55
2019/05/30 16:22:53;;;;;;;2.77;1.50;;;;;;;20.56;49.51;101393.05;;;;-55
2019/05/30 16:25:53;;;;;;;2.63;1.55;;;;;;;20.54;49.54;101396.17;;;;-55
2019/05/30 16:28:53;;;;;;;2.63;1.51;;;;;;;20.54;49.54;101393.72;;;;-56
2019/05/30 16:31:53;;;;;;;2.01;1.46;;;;;;;20.54;49.49;101388.69;;;;-55
2019/05/30 16:34:53;;;;;;;2.49;1.51;;;;;;;20.53;49.51;101389.02;;;;-55
2019/05/30 16:37:53;;;;;;;6.68;1.62;;;;;;;20.52;49.50;101387.11;;;;-54
2019/05/30 16:40:53;;;;;;;4.89;1.59;;;;;;;20.52;49.51;101381.91;;;;-55
2019/05/30 16:43:53;;;;;;;4.31;1.63;;;;;;;20.51;49.45;101391.75;;;;-54
2019/05/30 16:46:54;;;;;;;3.77;1.64;;;;;;;20.50;49.48;101395.07;;;;-58